Time;durP1;ratioP1;P1;durP2;ratioP2;P2;SDS_P1;SDS_P2;PMS_P1;PMS_P2;Temp;Humidity;BMP_temperature;BMP_pressure;BME280_temperature;BME280_humidity;BME280_pressure;Samples;Min_cycle;Max_cycle;Signal;HPM_P1;HPM_P2
2023/10/07 00:00:17;;;;;;;39.20;31.63;;;;;;;;;;5007948;28;20081;-61
2023/10/07 00:02:43;;;;;;;41.30;31.52;;;;;;;;;;5026389;28;20044;-62
2023/10/07 00:05:15;;;;;;;40.85;31.92;;;;;;;;;;5032022;28;20095;-62
2023/10/07 00:07:44;;;;;;;40.65;31.05;;;;;;;;;;5031873;28;20164;-62
2023/10/07 00:10:14;;;;;;;36.50;30.23;;;;;;;;;;5031457;28;20519;-61
2023/10/07 00:12:40;;;;;;;38.55;32.72;;;;;;;;;;5002843;28;20022;-62
2023/10/07 00:15:11;;;;;;;40.10;32.67;;;;;;;;;;5029921;28;20399;-62
2023/10/07 00:17:43;;;;;;;43.20;32.28;;;;;;;;;;5003860;28;20096;-62
2023/10/07 00:20:10;;;;;;;38.05;30.92;;;;;;;;;;5004026;28;20053;-61
2023/10/07 00:22:41;;;;;;;45.05;33.15;;;;;;;;;;5010550;28;20061;-62
2023/10/07 00:25:07;;;;;;;38.63;32.10;;;;;;;;;;5029911;28;20043;-62
2023/10/07 00:27:38;;;;;;;41.75;33.35;;;;;;;;;;5027875;28;20018;-62
2023/10/07 00:30:13;;;;;;;43.00;33.08;;;;;;;;;;5022284;28;20079;-62
2023/10/07 00:32:39;;;;;;;41.42;33.50;;;;;;;;;;5031720;28;20053;-62
2023/10/07 00:35:07;;;;;;;44.53;33.38;;;;;;;;;;5031628;28;20174;-61
2023/10/07 00:37:46;;;;;;;45.60;33.28;;;;;;;;;;5012362;28;20475;-60
2023/10/07 00:40:25;;;;;;;43.35;33.95;;;;;;;;;;5010513;28;20073;-60
2023/10/07 00:42:52;;;;;;;38.17;31.63;;;;;;;;;;5029413;28;20021;-60
2023/10/07 00:45:20;;;;;;;40.97;32.30;;;;;;;;;;5031705;28;20025;-60
2023/10/07 00:47:49;;;;;;;38.20;31.77;;;;;;;;;;5031193;28;20026;-60
2023/10/07 00:50:16;;;;;;;44.95;32.00;;;;;;;;;;5031447;28;20080;-60
2023/10/07 00:52:56;;;;;;;41.22;32.00;;;;;;;;;;5031274;28;20025;-59
2023/10/07 00:55:29;;;;;;;40.13;32.33;;;;;;;;;;5010206;28;20036;-60
2023/10/07 01:12:39;;;;;;;41.60;32.65;;;;;;;;;;5034784;28;20112;-60
2023/10/07 01:15:27;;;;;;;39.47;31.23;;;;;;;;;;5029889;28;20036;-60
2023/10/07 01:18:03;;;;;;;41.03;31.60;;;;;;;;;;5033817;28;20083;-60
2023/10/07 01:20:48;;;;;;;41.47;32.17;;;;;;;;;;5032768;28;20120;-60
2023/10/07 01:23:32;;;;;;;41.03;32.30;;;;;;;;;;5034347;28;20017;-59
2023/10/07 01:25:59;;;;;;;41.15;31.55;;;;;;;;;;5034128;28;20101;-60
2023/10/07 01:28:26;;;;;;;40.17;32.28;;;;;;;;;;5023076;28;20361;-60
2023/10/07 01:31:08;;;;;;;43.00;32.78;;;;;;;;;;5030459;28;20026;-60
2023/10/07 01:33:46;;;;;;;39.10;31.55;;;;;;;;;;5011899;28;20029;-60
2023/10/07 01:36:24;;;;;;;43.63;32.97;;;;;;;;;;5031885;28;20115;-60
2023/10/07 01:38:51;;;;;;;40.47;33.13;;;;;;;;;;5032464;28;20647;-60
2023/10/07 01:41:18;;;;;;;41.05;31.77;;;;;;;;;;5033400;28;20502;-60
2023/10/07 01:43:56;;;;;;;41.83;30.85;;;;;;;;;;5032952;28;20065;-59
2023/10/07 01:46:22;;;;;;;37.95;31.35;;;;;;;;;;5031818;28;20013;-59
2023/10/07 01:48:57;;;;;;;38.17;30.10;;;;;;;;;;5033385;28;20021;-59
2023/10/07 01:51:27;;;;;;;42.47;33.13;;;;;;;;;;5033381;28;20024;-60
2023/10/07 01:53:58;;;;;;;41.00;31.52;;;;;;;;;;5012092;28;20029;-58
2023/10/07 01:56:29;;;;;;;41.95;31.08;;;;;;;;;;5030483;28;20383;-60
2023/10/07 01:58:57;;;;;;;42.90;32.55;;;;;;;;;;5032103;28;20033;-61
2023/10/07 02:01:28;;;;;;;40.58;30.95;;;;;;;;;;5026661;28;20083;-61
2023/10/07 02:03:57;;;;;;;41.25;31.95;;;;;;;;;;4999033;28;20357;-60
2023/10/07 02:06:24;;;;;;;40.88;31.95;;;;;;;;;;5010055;28;20021;-59
2023/10/07 02:08:50;;;;;;;42.72;32.63;;;;;;;;;;5008633;28;20068;-60
2023/10/07 02:11:25;;;;;;;40.30;30.67;;;;;;;;;;5012185;28;20050;-58
2023/10/07 02:13:52;;;;;;;43.70;32.50;;;;;;;;;;5010438;28;20111;-60
2023/10/07 02:16:19;;;;;;;41.53;33.25;;;;;;;;;;5012894;28;20030;-59
2023/10/07 02:18:47;;;;;;;39.33;30.77;;;;;;;;;;5005162;28;20076;-61
2023/10/07 02:21:17;;;;;;;40.05;29.80;;;;;;;;;;5013656;28;20104;-59
2023/10/07 02:23:44;;;;;;;38.75;31.30;;;;;;;;;;4998468;28;20464;-59
2023/10/07 02:26:20;;;;;;;45.53;32.15;;;;;;;;;;5012159;28;20549;-59
2023/10/07 02:28:50;;;;;;;38.55;31.10;;;;;;;;;;5015198;28;20021;-59
2023/10/07 02:31:17;;;;;;;41.30;29.73;;;;;;;;;;5024789;28;20113;-59
2023/10/07 02:33:51;;;;;;;39.22;30.65;;;;;;;;;;5028122;28;20029;-60
2023/10/07 02:36:31;;;;;;;39.00;29.88;;;;;;;;;;5033163;28;20034;-59
2023/10/07 02:39:18;;;;;;;36.85;29.17;;;;;;;;;;5033167;28;20075;-58
2023/10/07 02:41:46;;;;;;;41.47;31.65;;;;;;;;;;5033040;28;20029;-59
2023/10/07 02:44:37;;;;;;;40.63;30.17;;;;;;;;;;5032865;28;20026;-59
2023/10/07 02:47:11;;;;;;;40.38;30.95;;;;;;;;;;5032957;28;20025;-59
2023/10/07 02:49:46;;;;;;;37.50;30.33;;;;;;;;;;5013885;28;20022;-59
2023/10/07 02:52:16;;;;;;;37.47;31.02;;;;;;;;;;5025361;28;20463;-59
2023/10/07 02:54:42;;;;;;;39.13;29.60;;;;;;;;;;5031226;28;20491;-59
2023/10/07 02:57:11;;;;;;;37.88;30.15;;;;;;;;;;5006379;28;20029;-59
2023/10/07 03:05:44;;;;;;;35.83;29.95;;;;;;;;;;5008243;28;20033;-59
2023/10/07 03:08:19;;;;;;;42.30;30.33;;;;;;;;;;5007238;28;20025;-59
2023/10/07 03:11:03;;;;;;;37.28;29.42;;;;;;;;;;5032204;28;20095;-59
2023/10/07 03:13:29;;;;;;;36.05;29.05;;;;;;;;;;5032689;28;20372;-59
2023/10/07 03:18:41;;;;;;;39.28;29.83;;;;;;;;;;4993368;28;20045;-59
2023/10/07 03:21:10;;;;;;;37.38;30.75;;;;;;;;;;5023352;28;20032;-59
2023/10/07 03:23:45;;;;;;;37.00;30.02;;;;;;;;;;5032447;28;20053;-58
2023/10/07 03:26:12;;;;;;;37.65;30.73;;;;;;;;;;5032326;28;20036;-59
2023/10/07 03:28:47;;;;;;;36.97;30.42;;;;;;;;;;5032391;28;20021;-59
2023/10/07 03:31:18;;;;;;;41.47;31.05;;;;;;;;;;5032276;28;20059;-59
2023/10/07 03:36:31;;;;;;;37.22;31.35;;;;;;;;;;5032058;28;20130;-59
2023/10/07 03:41:47;;;;;;;32.65;28.60;;;;;;;;;;5031961;28;20036;-58
2023/10/07 03:44:13;;;;;;;35.63;28.70;;;;;;;;;;5032005;28;20215;-59
2023/10/07 03:46:40;;;;;;;36.03;29.00;;;;;;;;;;5031686;28;20052;-58
2023/10/07 03:49:07;;;;;;;38.45;30.05;;;;;;;;;;5031921;28;20040;-59
2023/10/07 03:51:35;;;;;;;35.15;29.55;;;;;;;;;;5032269;28;20028;-59
2023/10/07 03:54:12;;;;;;;37.33;29.90;;;;;;;;;;5031958;28;20036;-60
2023/10/07 03:56:38;;;;;;;36.15;28.48;;;;;;;;;;5010926;28;20052;-59
2023/10/07 03:59:05;;;;;;;36.55;28.30;;;;;;;;;;5031347;28;20026;-59
2023/10/07 04:01:35;;;;;;;42.53;30.25;;;;;;;;;;5031891;28;20108;-59
2023/10/07 04:04:01;;;;;;;37.83;29.77;;;;;;;;;;5030037;28;20391;-59
2023/10/07 04:06:31;;;;;;;38.10;29.92;;;;;;;;;;5013767;28;20100;-58
2023/10/07 04:09:07;;;;;;;38.83;30.83;;;;;;;;;;5023384;28;20021;-59
2023/10/07 04:11:37;;;;;;;38.58;29.92;;;;;;;;;;5010542;28;20084;-60
2023/10/07 04:14:08;;;;;;;37.33;30.25;;;;;;;;;;5027721;28;20061;-61
2023/10/07 04:16:36;;;;;;;35.55;29.45;;;;;;;;;;5014924;28;20117;-60
2023/10/07 04:19:30;;;;;;;36.38;29.08;;;;;;;;;;4989874;28;20036;-60
2023/10/07 04:21:55;;;;;;;35.42;28.75;;;;;;;;;;5022285;28;20065;-59
2023/10/07 04:24:23;;;;;;;32.50;27.73;;;;;;;;;;5013629;28;20021;-59
2023/10/07 04:26:54;;;;;;;36.85;29.70;;;;;;;;;;5000474;28;20021;-59
2023/10/07 04:29:21;;;;;;;39.00;29.55;;;;;;;;;;5031638;28;20021;-59
2023/10/07 04:31:54;;;;;;;33.17;28.63;;;;;;;;;;5023213;28;20054;-59
2023/10/07 04:34:24;;;;;;;37.42;29.70;;;;;;;;;;4985055;28;20103;-59
2023/10/07 04:37:11;;;;;;;35.50;28.65;;;;;;;;;;5028742;28;20109;-60
2023/10/07 04:39:38;;;;;;;39.40;28.80;;;;;;;;;;5007571;28;20378;-59
2023/10/07 04:42:07;;;;;;;38.35;29.98;;;;;;;;;;5035263;28;20475;-60
2023/10/07 04:52:50;;;;;;;;;;;;;;;;;;5036172;28;20065;-60
2023/10/07 04:55:19;;;;;;;38.65;28.70;;;;;;;;;;5010451;28;19958;-59
2023/10/07 05:03:00;;;;;;;36.22;29.30;;;;;;;;;;5034707;28;20030;-59
2023/10/07 05:05:33;;;;;;;34.08;27.65;;;;;;;;;;5034773;28;20379;-60
2023/10/07 05:08:08;;;;;;;32.75;27.55;;;;;;;;;;5019750;28;20093;-60
2023/10/07 05:10:38;;;;;;;36.65;27.70;;;;;;;;;;5024874;28;20153;-59
2023/10/07 05:13:06;;;;;;;35.42;28.23;;;;;;;;;;5035176;28;20022;-59
2023/10/07 05:15:33;;;;;;;37.15;30.45;;;;;;;;;;5007192;28;20022;-59
2023/10/07 05:18:01;;;;;;;31.98;27.15;;;;;;;;;;5007315;28;20029;-59
2023/10/07 05:20:27;;;;;;;37.45;29.65;;;;;;;;;;5034548;28;20072;-59
2023/10/07 05:22:56;;;;;;;36.08;28.00;;;;;;;;;;5034291;28;20029;-59
2023/10/07 05:25:22;;;;;;;35.75;28.45;;;;;;;;;;5034687;28;20368;-59
2023/10/07 05:27:50;;;;;;;34.92;27.63;;;;;;;;;;5015988;28;20420;-60
2023/10/07 05:30:18;;;;;;;33.78;27.63;;;;;;;;;;5034292;28;20113;-59
2023/10/07 05:32:45;;;;;;;33.33;27.60;;;;;;;;;;5034329;28;20498;-60
2023/10/07 05:35:15;;;;;;;36.38;28.23;;;;;;;;;;5013100;28;20022;-59
2023/10/07 05:37:43;;;;;;;35.42;27.05;;;;;;;;;;5028552;28;20400;-59
2023/10/07 05:40:13;;;;;;;35.17;27.67;;;;;;;;;;5013154;28;20058;-59
2023/10/07 05:42:39;;;;;;;33.92;26.52;;;;;;;;;;5016322;28;20509;-59
2023/10/07 05:45:07;;;;;;;33.70;27.35;;;;;;;;;;5033991;28;20029;-59
2023/10/07 05:47:33;;;;;;;35.83;27.52;;;;;;;;;;4979646;28;20033;-59
2023/10/07 05:50:00;;;;;;;35.88;27.42;;;;;;;;;;5031368;28;20022;-59
2023/10/07 05:52:27;;;;;;;34.20;27.55;;;;;;;;;;5006897;28;20029;-59
2023/10/07 05:54:56;;;;;;;32.63;26.98;;;;;;;;;;5029956;28;20029;-59
2023/10/07 05:57:23;;;;;;;35.75;26.25;;;;;;;;;;5033678;28;20040;-59
2023/10/07 05:59:50;;;;;;;31.75;26.80;;;;;;;;;;5033791;28;20084;-59
2023/10/07 06:02:16;;;;;;;31.58;26.80;;;;;;;;;;5012750;28;20487;-60
2023/10/07 06:04:44;;;;;;;38.97;27.90;;;;;;;;;;5007275;28;20431;-59
2023/10/07 06:07:12;;;;;;;34.70;28.02;;;;;;;;;;4996941;28;20345;-59
2023/10/07 06:09:42;;;;;;;33.85;27.90;;;;;;;;;;5033686;28;20049;-59
2023/10/07 06:12:09;;;;;;;37.92;27.05;;;;;;;;;;5033631;28;20120;-61
2023/10/07 06:14:35;;;;;;;36.13;27.00;;;;;;;;;;5027570;28;20033;-61
2023/10/07 06:17:01;;;;;;;36.92;27.17;;;;;;;;;;5010352;28;20038;-59
2023/10/07 06:19:27;;;;;;;38.60;27.98;;;;;;;;;;5008845;28;20021;-59
2023/10/07 06:21:56;;;;;;;38.13;28.25;;;;;;;;;;5009132;28;20037;-59
2023/10/07 06:24:23;;;;;;;34.30;28.08;;;;;;;;;;5004728;28;20030;-60
2023/10/07 06:26:53;;;;;;;36.28;27.50;;;;;;;;;;5017369;28;20033;-59
2023/10/07 06:29:19;;;;;;;38.30;28.10;;;;;;;;;;5028276;28;20026;-60
2023/10/07 06:32:22;;;;;;;37.58;29.02;;;;;;;;;;5019718;28;20034;-59
2023/10/07 06:34:44;;;;;;;33.22;28.27;;;;;;;;;;5013962;28;20059;-60
2023/10/07 06:37:10;;;;;;;34.75;27.85;;;;;;;;;;5033244;28;20368;-60
2023/10/07 06:39:37;;;;;;;35.88;27.45;;;;;;;;;;5024823;28;20425;-60
2023/10/07 06:42:05;;;;;;;33.30;26.73;;;;;;;;;;5015752;28;20152;-60
2023/10/07 06:44:32;;;;;;;34.35;26.02;;;;;;;;;;5017911;28;20030;-60
2023/10/07 06:47:02;;;;;;;34.10;26.83;;;;;;;;;;5032772;28;20376;-60
2023/10/07 06:49:34;;;;;;;31.50;27.63;;;;;;;;;;5032914;28;20103;-60
2023/10/07 06:52:03;;;;;;;32.53;25.80;;;;;;;;;;5014932;28;20031;-60
2023/10/07 06:54:32;;;;;;;38.35;28.35;;;;;;;;;;5032673;28;20476;-60
2023/10/07 06:56:58;;;;;;;33.22;26.73;;;;;;;;;;5009314;28;20042;-59
2023/10/07 06:59:28;;;;;;;33.08;26.50;;;;;;;;;;5004150;28;20398;-60
2023/10/07 07:02:06;;;;;;;35.25;27.02;;;;;;;;;;5011257;28;20029;-59
2023/10/07 07:04:35;;;;;;;34.97;27.52;;;;;;;;;;5004262;28;20022;-60
2023/10/07 07:07:10;;;;;;;36.80;28.25;;;;;;;;;;5009720;28;20458;-60
2023/10/07 07:09:42;;;;;;;35.90;25.98;;;;;;;;;;5032526;28;20095;-59
2023/10/07 07:12:12;;;;;;;36.72;27.50;;;;;;;;;;5027158;28;20038;-60
2023/10/07 07:14:41;;;;;;;32.60;27.02;;;;;;;;;;5012432;28;20516;-60
2023/10/07 07:22:37;;;;;;;36.40;30.13;;;;;;;;;;5012303;28;20064;-60
2023/10/07 07:25:17;;;;;;;38.63;28.58;;;;;;;;;;5013164;28;20443;-60
2023/10/07 07:27:48;;;;;;;36.30;29.58;;;;;;;;;;5019604;28;20077;-60
2023/10/07 07:30:30;;;;;;;38.17;30.45;;;;;;;;;;5027417;28;20022;-60
2023/10/07 07:32:59;;;;;;;38.58;30.73;;;;;;;;;;5007521;28;20033;-60
2023/10/07 07:35:37;;;;;;;38.90;29.90;;;;;;;;;;5017028;28;20074;-60
2023/10/07 07:38:11;;;;;;;40.88;30.77;;;;;;;;;;5013293;28;20022;-60
2023/10/07 07:40:40;;;;;;;46.53;33.35;;;;;;;;;;5011063;28;20044;-59
2023/10/07 07:43:07;;;;;;;45.38;32.60;;;;;;;;;;5014422;28;20039;-59
2023/10/07 07:45:35;;;;;;;45.17;36.60;;;;;;;;;;5027135;28;20097;-59
2023/10/07 07:48:06;;;;;;;45.78;33.60;;;;;;;;;;5031930;28;20049;-60
2023/10/07 07:50:41;;;;;;;46.72;35.50;;;;;;;;;;5032020;28;20104;-60
2023/10/07 07:53:09;;;;;;;50.17;35.63;;;;;;;;;;5019370;28;20382;-60
2023/10/07 07:55:37;;;;;;;44.50;34.33;;;;;;;;;;5013028;28;20057;-60
2023/10/07 07:58:03;;;;;;;50.83;35.83;;;;;;;;;;5032062;28;20029;-59
2023/10/07 08:00:31;;;;;;;49.08;36.22;;;;;;;;;;5013318;28;20498;-59
2023/10/07 08:02:58;;;;;;;49.78;36.88;;;;;;;;;;5032427;28;20220;-59
2023/10/07 08:05:28;;;;;;;53.80;38.38;;;;;;;;;;5032297;28;20113;-59
2023/10/07 08:07:54;;;;;;;49.90;37.45;;;;;;;;;;5032047;28;20471;-59
2023/10/07 08:10:22;;;;;;;53.67;38.08;;;;;;;;;;5031864;28;20073;-59
2023/10/07 08:12:50;;;;;;;50.90;37.22;;;;;;;;;;5016384;28;20355;-59
2023/10/07 08:15:23;;;;;;;49.15;36.92;;;;;;;;;;5036105;28;20033;-59
2023/10/07 08:17:51;;;;;;;48.70;36.85;;;;;;;;;;5036021;28;20065;-59
2023/10/07 08:20:27;;;;;;;52.53;39.25;;;;;;;;;;5015000;28;20025;-59
2023/10/07 08:22:53;;;;;;;45.50;35.53;;;;;;;;;;5033213;28;20045;-59
2023/10/07 08:25:36;;;;;;;50.13;36.60;;;;;;;;;;5035988;28;20030;-60
2023/10/07 08:28:18;;;;;;;49.40;39.53;;;;;;;;;;5036019;28;20375;-60
2023/10/07 08:30:46;;;;;;;50.42;36.90;;;;;;;;;;5028360;28;20017;-60
2023/10/07 08:33:13;;;;;;;49.42;38.20;;;;;;;;;;4998487;28;20061;-60
2023/10/07 08:35:43;;;;;;;51.30;36.38;;;;;;;;;;5022004;28;20029;-60
2023/10/07 08:38:37;;;;;;;47.92;35.75;;;;;;;;;;5035672;28;20033;-60
2023/10/07 08:41:07;;;;;;;45.58;35.33;;;;;;;;;;5034991;28;20029;-60
2023/10/07 08:43:45;;;;;;;47.40;37.55;;;;;;;;;;5015538;28;20034;-60
2023/10/07 08:46:16;;;;;;;45.92;35.25;;;;;;;;;;5035266;28;20068;-61
2023/10/07 08:48:58;;;;;;;49.58;35.53;;;;;;;;;;5032581;28;20025;-60
2023/10/07 08:51:25;;;;;;;43.80;34.58;;;;;;;;;;4997815;28;20382;-60
2023/10/07 08:53:57;;;;;;;42.92;32.83;;;;;;;;;;5035299;28;20068;-60
2023/10/07 08:56:25;;;;;;;48.05;36.38;;;;;;;;;;5035573;28;20022;-60
2023/10/07 08:58:54;;;;;;;48.78;35.20;;;;;;;;;;5035131;28;20033;-60
2023/10/07 09:01:24;;;;;;;44.30;35.67;;;;;;;;;;5014244;28;20030;-60
2023/10/07 09:03:52;;;;;;;43.30;34.10;;;;;;;;;;5006920;28;20037;-60
2023/10/07 09:06:20;;;;;;;46.17;36.13;;;;;;;;;;5035374;28;20029;-60
2023/10/07 09:08:46;;;;;;;51.08;37.47;;;;;;;;;;5035226;28;20484;-60
2023/10/07 09:11:19;;;;;;;50.13;35.78;;;;;;;;;;5034533;28;20041;-60
2023/10/07 09:13:47;;;;;;;54.03;38.90;;;;;;;;;;5027140;28;20030;-60
2023/10/07 09:16:13;;;;;;;53.63;39.88;;;;;;;;;;5034622;28;20064;-59
2023/10/07 09:18:42;;;;;;;49.78;39.10;;;;;;;;;;5034956;28;20022;-59
2023/10/07 09:21:09;;;;;;;50.35;38.10;;;35.20;1.00;;;;;;5034558;28;20065;-59
2023/10/07 09:23:43;;;;;;;48.75;38.92;;;36.90;99.90;;;;;;5013973;28;20034;-58
2023/10/07 09:26:21;;;;;;;56.50;39.78;;;36.50;99.90;;;;;;4994440;28;20021;-59
2023/10/07 09:28:51;;;;;;;53.45;38.75;;;36.50;99.90;;;;;;5018235;28;20027;-59
2023/10/07 09:31:19;;;;;;;46.67;37.08;;;;;;;;;;5007407;28;20408;-59
2023/10/07 09:33:49;;;;;;;49.60;40.10;;;;;;;;;;4997292;28;20034;-59
2023/10/07 09:36:33;;;;;;;50.13;39.00;;;;;;;;;;5025875;28;20040;-59
2023/10/07 09:41:33;;;;;;;50.88;35.92;;;;;;;;;;5035021;28;20044;-58
2023/10/07 09:44:00;;;;;;;48.58;36.95;;;;;;;;;;5034205;28;20026;-59
2023/10/07 09:46:27;;;;;;;45.53;35.45;;;;;;;;;;5034204;28;20017;-58
2023/10/07 09:49:00;;;;;;;43.75;35.58;;;;;;;;;;5034122;28;20017;-58
2023/10/07 09:51:34;;;;;;;52.63;37.65;;;;;;;;;;5034645;28;20036;-58
2023/10/07 09:54:07;;;;;;;50.80;39.92;;;;;;;;;;5034225;28;20021;-58
2023/10/07 09:56:33;;;;;;;48.03;39.10;;;;;;;;;;5034237;28;20613;-59
2023/10/07 09:59:19;;;;;;;47.30;35.00;;;;;;;;;;5033813;28;20112;-58
2023/10/07 10:01:53;;;;;;;46.53;34.97;;;;;;;;;;5007869;28;20041;-54
2023/10/07 10:04:36;;;;;;;45.50;36.75;;;;;;;;;;5015750;28;20097;-54
2023/10/07 10:07:22;;;;;;;48.90;37.88;;;;;;;;;;4995102;28;20053;-54
2023/10/07 10:10:06;;;;;;;46.00;36.40;;;;;;;;;;5033548;28;20041;-54
2023/10/07 10:17:53;;;;;;;46.17;33.85;;;;;;;;;;5033724;28;20137;-56
2023/10/07 10:20:22;;;;;;;54.45;37.78;;;;;;;;;;5033679;28;20037;-55
2023/10/07 10:22:52;;;;;;;50.95;38.15;;;;;;;;;;5033371;28;20070;-56
2023/10/07 10:25:36;;;;;;;44.28;34.92;;;;;;;;;;5033551;28;20022;-56
2023/10/07 10:28:03;;;;;;;41.25;33.47;;;;;;;;;;5026532;28;20037;-57
2023/10/07 10:30:31;;;;;;;42.85;34.47;;;;;;;;;;5006568;28;20025;-56
2023/10/07 10:33:08;;;;;;;49.50;35.53;;;;;;;;;;5001752;28;20025;-56
2023/10/07 10:35:37;;;;;;;49.10;38.80;;;;;;;;;;5009854;28;20471;-55
2023/10/07 10:38:09;;;;;;;47.25;35.45;;;;;;;;;;5006515;28;20030;-57
2023/10/07 10:40:36;;;;;;;49.92;39.45;;;;;;;;;;5012948;28;20099;-56
2023/10/07 10:43:02;;;;;;;47.53;36.65;;;;;;;;;;4995707;28;20033;-56
2023/10/07 10:45:29;;;;;;;53.00;38.60;;;;;;;;;;5016613;28;20132;-55
2023/10/07 10:47:58;;;;;;;50.42;37.45;;;;;;;;;;5033003;28;20026;-56
2023/10/07 10:50:24;;;;;;;48.10;36.80;;;;;;;;;;5033072;28;20041;-56
2023/10/07 10:52:51;;;;;;;41.40;33.50;;;;;;;;;;5007427;28;20104;-55
2023/10/07 10:55:17;;;;;;;47.58;37.97;;;;;;;;;;5026903;28;20025;-55
2023/10/07 10:57:44;;;;;;;47.15;38.08;;;;;;;;;;5032639;28;20030;-55
2023/10/07 11:00:22;;;;;;;49.03;38.80;;;;;;;;;;5032901;28;20040;-57
2023/10/07 11:02:50;;;;;;;45.80;36.80;;;;;;;;;;5032677;28;20391;-57
2023/10/07 11:05:16;;;;;;;44.60;37.97;;;;;;;;;;5004986;28;20088;-57
2023/10/07 11:07:44;;;;;;;50.35;39.78;;;;;;;;;;5011579;28;20488;-54
2023/10/07 11:10:10;;;;;;;53.72;39.72;;;;;;;;;;5016838;28;20042;-55
2023/10/07 11:12:37;;;;;;;53.80;40.20;;;;;;;;;;5028337;28;20045;-56
2023/10/07 11:15:13;;;;;;;48.42;37.20;;;;;;;;;;5032478;28;20037;-56
2023/10/07 11:17:52;;;;;;;44.45;36.38;;;;;;;;;;5012579;28;20034;-56
2023/10/07 11:20:19;;;;;;;42.05;34.20;;;;;;;;;;5006034;28;20361;-57
2023/10/07 11:22:46;;;;;;;45.05;36.65;;;;;;;;;;5028062;28;20028;-54
2023/10/07 11:25:15;;;;;;;43.78;36.08;;;;;;;;;;5032653;28;20087;-56
2023/10/07 11:27:43;;;;;;;49.97;35.10;;;;;;;;;;5032257;28;20053;-57
2023/10/07 11:30:14;;;;;;;48.13;37.45;;;;;;;;;;5032513;28;20075;-55
2023/10/07 11:32:40;;;;;;;44.17;34.15;;;;;;;;;;5032404;28;20052;-56
2023/10/07 11:35:16;;;;;;;43.95;34.78;;;;;;;;;;5018661;28;20032;-57
2023/10/07 11:37:57;;;;;;;45.17;34.45;;;;;;;;;;5032095;28;20458;-57
2023/10/07 11:40:23;;;;;;;37.17;32.17;;;;;;;;;;5032469;28;20014;-58
2023/10/07 11:42:50;;;;;;;42.35;33.80;;;;;;;;;;5032145;28;20091;-57
2023/10/07 11:45:16;;;;;;;41.92;33.22;;;;;;;;;;5018206;28;20125;-56
2023/10/07 11:47:43;;;;;;;42.55;32.15;;;;;;;;;;5031814;28;20486;-58
2023/10/07 11:50:10;;;;;;;37.17;31.85;;;;;;;;;;5012979;28;20057;-57
2023/10/07 11:52:37;;;;;;;44.30;35.03;;;;;;;;;;5032024;28;20025;-58
2023/10/07 11:55:07;;;;;;;39.88;33.50;;;;;;;;;;5032049;28;20018;-58
2023/10/07 11:57:39;;;;;;;39.90;34.65;;;;;;;;;;5032187;28;20080;-56
2023/10/07 12:00:22;;;;;;;40.50;31.92;;;;;;;;;;5000198;28;20022;-57
2023/10/07 12:02:48;;;;;;;38.92;31.38;;;;;;;;;;5008735;28;20056;-58
2023/10/07 12:05:14;;;;;;;40.92;31.88;;;;;;;;;;5031850;28;20032;-58
2023/10/07 12:07:41;;;;;;;38.33;29.75;;;;;;;;;;5032100;28;20021;-58
2023/10/07 12:10:15;;;;;;;37.78;31.27;;;;;;;;;;5031835;28;20041;-58
2023/10/07 12:12:42;;;;;;;36.90;31.88;;;;;;;;;;5031733;28;20021;-58
2023/10/07 12:15:09;;;;;;;35.58;30.05;;;;;;;;;;5031969;28;20029;-58
2023/10/07 12:17:35;;;;;;;36.30;30.70;;;;;;;;;;5031323;28;20033;-57
2023/10/07 12:20:02;;;;;;;43.33;31.30;;;;;;;;;;5031693;28;20109;-57
2023/10/07 12:22:28;;;;;;;34.13;29.45;;;;;;;;;;5031578;28;20029;-57
2023/10/07 12:24:54;;;;;;;32.42;27.42;;;;;;;;;;5031674;28;20022;-57
2023/10/07 12:27:21;;;;;;;34.95;30.42;;;;;;;;;;5031722;28;20100;-57
2023/10/07 12:29:47;;;;;;;33.80;28.38;;;;;;;;;;5031663;28;20039;-57
2023/10/07 12:32:13;;;;;;;33.35;28.15;;;;;;;;;;5031979;28;20375;-57
2023/10/07 12:34:47;;;;;;;35.40;29.40;;;;;;;;;;5031688;28;20029;-57
2023/10/07 12:37:13;;;;;;;31.65;27.52;;;;;;;;;;4991312;28;20515;-57
2023/10/07 12:39:39;;;;;;;31.23;27.25;;;;;;;;;;5026918;28;20078;-58
2023/10/07 12:42:07;;;;;;;31.83;26.35;;;;;;;;;;5010638;28;20077;-58
2023/10/07 12:44:34;;;;;;;31.88;26.73;;;;;;;;;;5015808;28;20023;-57
2023/10/07 12:47:00;;;;;;;32.92;26.08;;;;;;;;;;5029262;28;20479;-56
2023/10/07 12:49:27;;;;;;;29.75;25.02;;;;;;;;;;5031733;28;20036;-58
2023/10/07 12:51:53;;;;;;;28.17;24.02;;;;;;;;;;5031275;28;20045;-56
2023/10/07 12:54:19;;;;;;;28.75;25.15;;;;;;;;;;5005725;28;20409;-56
2023/10/07 12:56:46;;;;;;;28.27;24.35;;;;;;;;;;5025774;28;20041;-56
2023/10/07 12:59:24;;;;;;;31.50;25.67;;;;;;;;;;5033853;28;20033;-56
2023/10/07 13:01:50;;;;;;;26.35;22.80;;;;;;;;;;5014047;28;20116;-56
2023/10/07 13:04:19;;;;;;;29.77;24.83;;;;;;;;;;5034870;28;20112;-55
2023/10/07 13:06:46;;;;;;;30.83;27.48;;;;;;;;;;5034951;28;20025;-59
2023/10/07 13:09:18;;;;;;;28.67;24.63;;;;;;;;;;5016849;28;20360;-58
2023/10/07 13:11:49;;;;;;;29.35;26.23;;;;;;;;;;5021058;28;20034;-57
2023/10/07 13:14:15;;;;;;;30.50;23.88;;;;;;;;;;5005881;28;20017;-57
2023/10/07 13:16:45;;;;;;;29.85;23.95;;;;;;;;;;5025347;28;20040;-55
2023/10/07 13:19:11;;;;;;;29.83;24.50;;;;;;;;;;5027484;28;20021;-56
2023/10/07 13:21:37;;;;;;;28.90;24.48;;;;;;;;;;4995992;28;20087;-56
2023/10/07 13:24:07;;;;;;;25.55;22.77;;;;;;;;;;5023963;28;20080;-57
2023/10/07 13:26:33;;;;;;;29.08;24.65;;;;;;;;;;5003839;28;20037;-57
2023/10/07 13:29:01;;;;;;;28.90;24.48;;;;;;;;;;4997353;28;20018;-56
2023/10/07 13:31:29;;;;;;;30.10;25.40;;;;;;;;;;5014842;28;20528;-58
2023/10/07 13:33:55;;;;;;;28.48;24.35;;;;;;;;;;5003793;28;20109;-54
2023/10/07 13:36:21;;;;;;;33.10;26.75;;;;;;;;;;5009042;28;20384;-55
2023/10/07 13:38:47;;;;;;;28.30;23.88;;;;;;;;;;5002818;28;20032;-56
2023/10/07 13:41:17;;;;;;;31.70;26.10;;;;;;;;;;5008026;28;20026;-57
2023/10/07 13:43:44;;;;;;;28.10;24.42;;;;;;;;;;5029322;28;20464;-58
2023/10/07 13:46:12;;;;;;;29.17;23.55;;;;;;;;;;4996101;28;20084;-58
2023/10/07 13:48:38;;;;;;;28.33;24.33;;;;;;;;;;5031750;28;20014;-58
2023/10/07 13:51:06;;;;;;;32.97;26.63;;;;;;;;;;5020092;28;20033;-57
2023/10/07 13:54:21;;;;;;;29.20;26.20;;;;;;;;;;5023009;28;20427;-57
2023/10/07 13:56:51;;;;;;;30.48;24.30;;;;;;;;;;5031423;28;20049;-56
2023/10/07 13:59:17;;;;;;;30.42;25.92;;;;;;;;;;5019539;28;20014;-56
2023/10/07 14:01:46;;;;;;;27.58;24.60;;;;;;;;;;5007887;28;20030;-56
2023/10/07 14:04:15;;;;;;;25.95;21.13;;;;;;;;;;5031605;28;20013;-57
2023/10/07 14:06:41;;;;;;;25.33;22.58;;;;;;;;;;4984120;28;20060;-58
2023/10/07 14:09:15;;;;;;;26.52;23.05;;;;;;;;;;4995292;28;20432;-58
2023/10/07 14:11:45;;;;;;;29.77;23.90;;;;;;;;;;4984704;28;20424;-56
2023/10/07 14:14:11;;;;;;;30.02;22.52;;;;;;;;;;4970072;28;20027;-59
2023/10/07 14:16:37;;;;;;;26.13;22.75;;;;;;;;;;4963974;28;20070;-58
2023/10/07 14:19:06;;;;;;;28.35;24.10;;;;;;;;;;4970860;28;20097;-58
2023/10/07 14:21:32;;;;;;;25.73;22.92;;;;;;;;;;4975071;28;20539;-57
2023/10/07 14:24:03;;;;;;;28.38;23.67;;;;;;;;;;4973368;28;20114;-58
2023/10/07 14:26:35;;;;;;;25.77;22.95;;;;;;;;;;4984407;28;20472;-56
2023/10/07 14:29:05;;;;;;;32.20;23.73;;;;;;;;;;4969716;28;20030;-57
2023/10/07 14:31:36;;;;;;;31.10;23.80;;;;;;;;;;4984763;28;20081;-57
2023/10/07 14:34:07;;;;;;;27.92;23.48;;;;;;;;;;4968905;28;20388;-58
2023/10/07 14:36:34;;;;;;;29.52;24.27;;;;;;;;;;4972357;28;20050;-57
2023/10/07 14:39:00;;;;;;;29.35;22.83;;;;;;;;;;4971927;28;20461;-57
2023/10/07 14:41:28;;;;;;;26.98;23.13;;;;;;;;;;4969661;28;20113;-57
2023/10/07 14:43:56;;;;;;;27.38;23.60;;;;;;;;;;4969824;28;20128;-57
2023/10/07 14:49:26;;;;;;;25.38;22.60;;;;;;;;;;4968025;28;20081;-57
2023/10/07 14:52:01;;;;;;;25.95;23.10;;;;;;;;;;4972226;28;20031;-58
2023/10/07 14:54:27;;;;;;;24.55;22.02;;;;;;;;;;4951555;28;20034;-56
2023/10/07 14:56:53;;;;;;;34.63;24.45;;;;;;;;;;4970115;28;20070;-56
2023/10/07 14:59:19;;;;;;;25.40;22.50;;;;;;;;;;4974104;28;20062;-58
2023/10/07 15:01:45;;;;;;;28.90;23.08;;;;;;;;;;4972713;28;20030;-56
2023/10/07 15:04:14;;;;;;;31.58;25.02;;;;;;;;;;4972768;28;20185;-57
2023/10/07 15:06:40;;;;;;;26.80;23.70;;;;;;;;;;4978734;28;20481;-57
2023/10/07 15:09:07;;;;;;;26.92;22.50;;;;;;;;;;4979198;28;20070;-57
2023/10/07 15:11:33;;;;;;;33.92;25.00;;;;;;;;;;5031620;28;20531;-55
2023/10/07 15:14:01;;;;;;;31.38;25.40;;;;;;;;;;5013000;28;20056;-57
2023/10/07 15:16:28;;;;;;;29.48;23.98;;;;;;;;;;4992926;28;20053;-57
2023/10/07 15:18:54;;;;;;;27.70;24.48;;;;;;;;;;5010676;28;20107;-57
2023/10/07 15:21:23;;;;;;;32.28;25.92;;;;;;;;;;5012279;28;20025;-57
2023/10/07 15:23:49;;;;;;;31.88;25.98;;;;;;;;;;4994618;28;20026;-57
2023/10/07 15:26:19;;;;;;;29.35;24.33;;;;;;;;;;5012849;28;20022;-58
2023/10/07 15:28:47;;;;;;;33.58;26.92;;;;;;;;;;5002675;28;20030;-56
2023/10/07 15:31:21;;;;;;;29.00;25.25;;;;;;;;;;5010035;28;20045;-58